Data for 03/07/2007

Time Sea-Level Adjusted Pressure Absolute Pressure Temperature Relative Humidity Dew Point   
(mb) (inHg) (mb) (inHg) (C) (F) (%) (C) (F)
00:05 1022 30.18 851 25.13 3.9 39 56 -4 24.8
00:10 1022 30.18 851 25.13 3.8 38.8 57 -3.9 24.9
00:15 1022 30.18 851 25.13 3.7 38.6 58 -3.8 25.2
00:20 1022 30.18 851 25.13 3.4 38.1 59 -3.9 24.9
00:25 1022 30.18 851 25.13 3.3 37.9 59 -4 24.8
00:30 1022 30.18 851 25.13 3 37.5 60 -3.9 25
00:35 1022 30.18 851 25.13 2.8 37.1 61 -3.9 25
00:40 1022 30.18 851 25.13 3 37.4 60 -3.9 24.9
00:45 1021 30.15 851 25.13 3.2 37.8 60 -3.9 25
00:50 1021 30.15 851 25.13 3 37.5 60 -3.9 25.1
00:55 1021 30.15 851 25.13 2.8 37.1 61 -3.9 25
01:00 1021 30.15 851 25.13 2.5 36.5 62 -4.1 24.7
01:05 1021 30.15 851 25.13 2.2 35.9 63 -4.2 24.5
01:10 1021 30.15 851 25.13 2.2 35.9 62 -4.3 24.2
01:15 1021 30.15 851 25.13 2.9 37.2 59 -4.4 24.1
01:20 1021 30.15 850 25.1 3.2 37.7 58 -4.2 24.4
01:25 1021 30.15 850 25.1 3 37.5 59 -4.2 24.4
01:30 1021 30.15 851 25.13 2.8 37 60 -4.2 24.5
01:35 1021 30.15 851 25.13 2.5 36.6 61 -4.2 24.5
01:40 1021 30.15 851 25.13 2.3 36.1 62 -4.3 24.2
01:45 1021 30.15 851 25.13 2.2 35.9 62 -4.4 24.1
01:50 1021 30.15 851 25.13 2.2 35.9 62 -4.4 24.1
01:55 1021 30.15 851 25.13 2.3 36.2 61 -4.4 24.1
02:00 1021 30.15 851 25.13 2.1 35.9 62 -4.4 24
02:05 1021 30.15 851 25.13 2.3 36.1 60 -4.7 23.5
02:10 1021 30.15 851 25.13 3 37.4 58 -4.4 24.1
02:15 1021 30.15 850 25.1 2.9 37.3 59 -4.3 24.2
02:20 1021 30.15 850 25.1 3.1 37.6 58 -4.4 24.2
02:25 1021 30.15 851 25.13 2.8 37 59 -4.4 24.1
02:30 1021 30.15 850 25.1 2.7 36.9 59 -4.5 23.9
02:35 1021 30.15 850 25.1 3 37.5 58 -4.5 23.9
02:40 1021 30.15 850 25.1 2.7 36.9 60 -4.2 24.4
02:45 1021 30.15 850 25.1 2.3 36.2 61 -4.4 24
02:50 1021 30.15 850 25.1 2.7 36.9 59 -4.5 24
02:55 1021 30.15 850 25.1 3 37.4 57 -4.7 23.5
03:00 1021 30.15 850 25.1 3 37.5 58 -4.5 24
03:05 1021 30.15 850 25.1 2.7 36.9 59 -4.4 24
03:10 1021 30.15 850 25.1 2.4 36.3 60 -4.5 23.8
03:15 1021 30.15 850 25.1 2.1 35.7 61 -4.6 23.8
03:20 1021 30.15 850 25.1 2 35.6 62 -4.6 23.7
03:25 1021 30.15 850 25.1 2 35.6 62 -4.6 23.8
03:30 1021 30.15 850 25.1 1.9 35.5 62 -4.6 23.8
03:35 1021 30.15 850 25.1 1.7 35 63 -4.5 23.9
03:40 1021 30.15 850 25.1 1.4 34.5 64 -4.6 23.7
03:45 1021 30.15 850 25.1 1.2 34.1 65 -4.7 23.5
03:50 1021 30.15 850 25.1 1.3 34.3 64 -4.7 23.5
03:55 1021 30.15 850 25.1 1.5 34.6 64 -4.7 23.6
04:00 1021 30.15 850 25.1 1.3 34.3 65 -4.6 23.7
04:05 1021 30.15 850 25.1 1.3 34.3 64 -4.7 23.6
04:10 1021 30.15 850 25.1 1.4 34.5 64 -4.6 23.6
04:15 1020 30.12 850 25.1 1.2 34.2 64 -4.8 23.4
04:20 1020 30.12 850 25.1 1.5 34.6 63 -4.8 23.4
04:25 1020 30.12 850 25.1 1.6 34.9 63 -4.7 23.5
04:30 1020 30.12 850 25.1 1.6 34.9 63 -4.7 23.5
04:35 1020 30.12 850 25.1 1.5 34.7 64 -4.7 23.6
04:40 1020 30.12 850 25.1 1.6 34.8 63 -4.8 23.4
04:45 1020 30.12 850 25.1 1.6 34.8 63 -4.8 23.4
04:50 1020 30.12 850 25.1 1.9 35.4 61 -4.8 23.4
04:55 1020 30.12 849 25.07 2.4 36.3 60 -4.5 23.9
05:00 1020 30.12 849 25.07 2.3 36.2 60 -4.6 23.8
05:05 1020 30.12 849 25.07 2 35.6 62 -4.6 23.8
05:10 1020 30.12 849 25.07 1.8 35.2 63 -4.6 23.7
05:15 1020 30.12 849 25.07 1.7 35 63 -4.7 23.5
05:20 1020 30.12 849 25.07 1.5 34.7 63 -4.8 23.4
05:25 1020 30.12 849 25.07 1.2 34.2 64 -4.8 23.4
05:30 1020 30.12 849 25.07 1.1 34 65 -4.8 23.4
05:35 1020 30.12 849 25.07 0.9 33.7 65 -4.9 23.2
05:40 1020 30.12 849 25.07 0.7 33.2 67 -4.7 23.5
05:45 1020 30.12 849 25.07 0.9 33.6 65 -4.9 23.1
05:50 1020 30.12 849 25.07 0.9 33.5 66 -4.8 23.3
05:55 1020 30.12 849 25.07 0.8 33.4 66 -4.9 23.1
06:00 1020 30.12 849 25.07 0.8 33.4 65 -5 23
06:05 1020 30.12 849 25.07 0.9 33.7 65 -4.9 23.1
06:10 1020 30.12 849 25.07 0.9 33.6 66 -4.8 23.4
06:15 1020 30.12 849 25.07 0.8 33.5 66 -4.7 23.5
06:20 1020 30.12 849 25.07 1 33.8 65 -4.8 23.3
06:25 1020 30.12 849 25.07 1.2 34.2 65 -4.7 23.5
06:30 1020 30.12 849 25.07 1.2 34.1 65 -4.8 23.4
06:35 1020 30.12 849 25.07 1.3 34.3 64 -4.8 23.4
06:40 1020 30.12 849 25.07 0.9 33.6 65 -5 23.1
06:45 1020 30.12 849 25.07 0.7 33.2 66 -5 23
06:50 1020 30.12 849 25.07 0.6 33 66 -5 22.9
06:55 1020 30.12 849 25.07 0.5 33 66 -5.1 22.9
07:00 1020 30.12 849 25.07 0.7 33.2 66 -4.9 23.1
07:05 1020 30.12 849 25.07 0.8 33.4 66 -4.9 23.2
07:10 1020 30.12 849 25.07 0.7 33.3 66 -5 23.1
07:15 1020 30.12 849 25.07 0.8 33.4 65 -5.1 22.8
07:20 1020 30.12 849 25.07 1.2 34.1 63 -5.1 22.8
07:25 1020 30.12 849 25.07 1.2 34.1 63 -5.1 22.9
07:30 1020 30.12 849 25.07 1.4 34.5 63 -5 23
07:35 1020 30.12 849 25.07 1.3 34.4 63 -5 23
07:40 1020 30.12 849 25.07 1.6 34.9 61 -5.1 22.8
07:45 1020 30.12 849 25.07 2.3 36.2 59 -4.9 23.3
07:50 1020 30.12 849 25.07 2.3 36.2 59 -4.9 23.3
07:55 1020 30.12 849 25.07 2.1 35.7 60 -4.8 23.3
08:00 1020 30.12 849 25.07 1.8 35.3 61 -5 23
08:05 1020 30.12 849 25.07 2.3 36.1 59 -5 23
08:10 1020 30.12 849 25.07 2.5 36.5 58 -4.8 23.3
08:15 1020 30.12 849 25.07 2.7 36.9 57 -4.9 23.2
08:20 1020 30.12 849 25.07 2.9 37.2 57 -4.7 23.5
08:25 1019 30.09 849 25.07 3 37.4 57 -4.8 23.4
08:30 1019 30.09 849 25.07 3.2 37.8 56 -4.7 23.6
08:35 1019 30.09 849 25.07 3.5 38.3 55 -4.7 23.6
08:40 1019 30.09 849 25.07 3.9 39 54 -4.6 23.8
08:45 1019 30.09 849 25.07 4.1 39.3 54 -4.5 23.9
08:50 1019 30.09 849 25.07 4.4 40 52 -4.7 23.6
08:55 1019 30.09 849 25.07 5.1 41.2 49 -4.6 23.7
09:00 1019 30.09 849 25.07 5.6 42.2 48 -4.6 23.7
09:05 1019 30.09 848 25.04 5.8 42.5 47 -4.7 23.5
09:10 1019 30.09 848 25.04 5.8 42.4 47 -4.7 23.5
09:15 1019 30.09 848 25.04 6.3 43.3 46 -4.5 23.9
09:20 1019 30.09 848 25.04 6.8 44.2 45 -4.4 24
09:25 1019 30.09 848 25.04 7.3 45.1 44 -4.3 24.3
09:30 1019 30.09 848 25.04 7.6 45.8 44 -3.8 25.1
09:35 1019 30.09 848 25.04 8.4 47.2 42 -3.7 25.3
09:40 1019 30.09 848 25.04 9 48.2 39 -4.1 24.6
09:45 1019 30.09 848 25.04 8.9 48.1 40 -3.9 25
09:50 1019 30.09 848 25.04 8.9 48 41 -3.6 25.5
09:55 1019 30.09 848 25.04 9 48.1 40 -3.9 25
10:00 1019 30.09 848 25.04 9.3 48.7 39 -3.8 25.1
10:05 1019 30.09 848 25.04 10 50 36 -4.3 24.3
10:10 1019 30.09 848 25.04 10.7 51.2 35 -4.3 24.3
10:15 1019 30.09 848 25.04 11 51.9 35 -3.7 25.4
10:20 1019 30.09 848 25.04 11.5 52.6 33 -4.2 24.5
10:25 1019 30.09 848 25.04 11 51.9 34 -4.1 24.7
10:30 1019 30.09 848 25.04 10.6 51 35 -4 24.7
10:35 1019 30.09 848 25.04 10.3 50.6 38 -3.3 26
10:40 1019 30.09 848 25.04 10.4 50.7 37 -3.7 25.4
10:45 1019 30.09 848 25.04 11.2 52.1 35 -3.6 25.5
10:50 1019 30.09 848 25.04 11.3 52.3 35 -3.6 25.6
10:55 1018 30.06 848 25.04 11.6 52.9 34 -3.7 25.3
11:00 1018 30.06 848 25.04 11.1 52 35 -3.9 25
11:05 1018 30.06 847 25.01 10.8 51.5 34 -4.4 24
11:10 1018 30.06 847 25.01 11.3 52.3 35 -3.6 25.5
11:15 1018 30.06 847 25.01 10.8 51.5 39 -2.7 27.1
11:20 1018 30.06 847 25.01 11.3 52.4 33 -4.3 24.2
11:25 1018 30.06 847 25.01 12.4 54.2 34 -3.2 26.3
11:30 1018 30.06 847 25.01 12 53.7 34 -3.4 26
11:35 1018 30.06 847 25.01 12.6 54.7 31 -3.9 25.1
11:40 1018 30.06 847 25.01 12.7 54.8 32 -3.6 25.6
11:45 1018 30.06 847 25.01 12.8 55.1 32 -3.5 25.6
11:50 1018 30.06 847 25.01 13.3 56 30 -3.8 25.1
11:55 1018 30.06 847 25.01 13.4 56 29 -4.5 24
12:00 1018 30.06 847 25.01 13.7 56.6 28 -4.7 23.6
12:05 1017 30.03 847 25.01 13.8 56.9 30 -3.5 25.6
12:10 1017 30.03 847 25.01 14.3 57.8 26 -5.1 22.8
12:15 1017 30.03 847 25.01 13.6 56.5 29 -4 24.8
12:20 1017 30.03 846 24.98 13.2 55.7 29 -4.5 23.9
12:25 1017 30.03 846 24.98 14 57.1 27 -4.9 23.2
12:30 1017 30.03 846 24.98 14.8 58.7 24 -5.3 22.5
12:35 1017 30.03 846 24.98 14.9 58.9 25 -4.8 23.3
12:40 1017 30.03 846 24.98 15.5 59.8 23 -5.5 22.1
12:45 1017 30.03 846 24.98 15.3 59.5 24 -5.3 22.4
12:50 1017 30.03 846 24.98 15.6 60.1 23 -5.6 22
12:55 1016 30 846 24.98 16.1 60.9 23 -5.1 22.7
13:00 1016 30 846 24.98 15.9 60.7 25 -4.1 24.6
13:05 1016 30 845 24.95 15.7 60.2 25 -4.4 24.1
13:10 1016 30 845 24.95 16.2 61.2 23 -5 23
13:15 1016 30 845 24.95 16.5 61.7 22 -5.2 22.6
13:20 1016 30 845 24.95 16.8 62.2 23 -4.5 23.9
13:25 1016 30 845 24.95 16.1 60.9 25 -3.8 25.2
13:30 1016 30 845 24.95 15.3 59.5 25 -4.5 23.9
13:35 1016 30 845 24.95 14.6 58.3 27 -3.9 24.9
13:40 1016 30 845 24.95 14.4 58 26 -4.7 23.5
13:45 1016 30 845 24.95 14.1 57.3 27 -4.5 24
13:50 1015 29.97 845 24.95 14.3 57.7 28 -4.1 24.7
13:55 1015 29.97 845 24.95 14.9 58.8 26 -4.5 23.9
14:00 1015 29.97 845 24.95 14.2 57.6 28 -3.9 24.9
14:05 1015 29.97 845 24.95 14.7 58.4 26 -4.6 23.8
14:10 1015 29.97 844 24.92 15.3 59.5 26 -3.9 24.9
14:15 1015 29.97 844 24.92 15.9 60.6 24 -4.5 23.9
14:20 1015 29.97 844 24.92 16.4 61.5 25 -3.8 25.1
14:25 1015 29.97 844 24.92 16.1 61 26 -3.3 26
14:30 1015 29.97 844 24.92 15.9 60.5 26 -3.7 25.3
14:35 1015 29.97 844 24.92 15.4 59.7 27 -3.3 26.1
14:40 1015 29.97 844 24.92 15.8 60.4 26 -3.4 25.9
14:45 1015 29.97 844 24.92 15.6 60.1 26 -3.8 25.1
14:50 1015 29.97 844 24.92 15.3 59.6 27 -3.6 25.5
14:55 1015 29.97 844 24.92 15.1 59.1 26 -4.1 24.7
15:00 1015 29.97 844 24.92 15.6 60 27 -3.2 26.2
15:05 1015 29.97 844 24.92 15.8 60.4 25 -3.9 24.9
15:10 1014 29.94 844 24.92 15.7 60.3 26 -3.4 25.8
15:15 1014 29.94 844 24.92 15.6 60.2 26 -3.9 25.1
15:20 1014 29.94 844 24.92 15.4 59.7 26 -4 24.9
15:25 1014 29.94 843 24.89 15.4 59.6 27 -3.7 25.4
15:30 1014 29.94 844 24.92 15.2 59.3 27 -3.6 25.5
15:35 1014 29.94 844 24.92 15.1 59.2 27 -3.6 25.5
15:40 1014 29.94 843 24.89 15 59 27 -4 24.9
15:45 1014 29.94 843 24.89 14.6 58.4 30 -2.6 27.3
15:50 1014 29.94 843 24.89 13.4 56.2 30 -3.6 25.6
15:55 1014 29.94 843 24.89 13.3 55.9 30 -3.7 25.4
16:00 1014 29.94 843 24.89 14.3 57.7 28 -3.7 25.3
16:05 1014 29.94 843 24.89 13.9 57 29 -3.7 25.4
16:10 1014 29.94 843 24.89 13.3 56 30 -3.9 24.9
16:15 1014 29.94 843 24.89 13 55.3 31 -3.9 25
16:20 1014 29.94 843 24.89 13.2 55.7 28 -4.8 23.4
16:25 1014 29.94 843 24.89 13.2 55.8 28 -4.6 23.6
16:30 1014 29.94 843 24.89 12.8 55.1 29 -4.6 23.8
16:35 1014 29.94 843 24.89 12.7 54.8 29 -4.8 23.4
16:40 1014 29.94 843 24.89 12.1 53.7 30 -4.9 23.2
16:45 1014 29.94 843 24.89 11.7 53.1 30 -5.3 22.5
16:50 1014 29.94 843 24.89 12 53.6 29 -5.3 22.5
16:55 1014 29.94 843 24.89 12 53.5 29 -5.6 22
17:00 1014 29.94 843 24.89 12.1 53.7 28 -5.7 21.8
17:05 1014 29.94 843 24.89 12.6 54.6 28 -5.4 22.2
17:10 1014 29.94 843 24.89 12.3 54.2 29 -5.2 22.7
17:15 1014 29.94 843 24.89 12.1 53.8 29 -5.2 22.6
17:20 1014 29.94 843 24.89 12.3 54.1 28 -5.9 21.4
17:25 1014 29.94 843 24.89 12.3 54.2 28 -5.9 21.5
17:30 1014 29.94 843 24.89 12.5 54.5 28 -5.5 22.1
17:35 1014 29.94 843 24.89 12.2 54 30 -4.7 23.5
17:40 1014 29.94 843 24.89 11.7 53.1 30 -5.3 22.5
17:45 1014 29.94 843 24.89 11.9 53.3 29 -5.5 22
17:50 1014 29.94 843 24.89 11.8 53.2 29 -5.4 22.3
17:55 1014 29.94 843 24.89 11.3 52.4 30 -5.5 22.1
18:00 1014 29.94 843 24.89 11.1 51.9 32 -5.1 22.8
18:05 1014 29.94 843 24.89 10.8 51.4 32 -5.3 22.5
18:10 1013 29.91 843 24.89 10.6 51.1 30 -6 21.1
18:15 1013 29.91 843 24.89 10.8 51.4 31 -5.8 21.6
18:20 1013 29.91 843 24.89 10.5 50.9 33 -5.3 22.5
18:25 1013 29.91 843 24.89 10.2 50.4 32 -5.5 22
18:30 1013 29.91 842 24.86 10 50.1 33 -5.6 21.9
18:35 1013 29.91 842 24.86 9.7 49.5 34 -5.4 22.3
18:40 1013 29.91 842 24.86 9.2 48.5 36 -5.1 22.7
18:45 1013 29.91 842 24.86 8.7 47.6 38 -4.8 23.4
18:50 1013 29.91 842 24.86 8.4 47 38 -5 23
18:55 1013 29.91 842 24.86 8.3 47 37 -5.5 22.1
19:00 1013 29.91 842 24.86 8.4 47.2 37 -5.4 22.2
19:05 1013 29.91 842 24.86 8.7 47.6 35 -5.9 21.5
19:10 1013 29.91 842 24.86 8.5 47.4 35 -5.9 21.3
19:15 1013 29.91 842 24.86 8.4 47.2 36 -5.9 21.4
19:20 1013 29.91 842 24.86 8.2 46.8 37 -5.7 21.8
19:25 1013 29.91 842 24.86 8.3 46.9 37 -5.7 21.8
19:30 1013 29.91 842 24.86 8.4 47.1 34 -6.6 20.1
19:35 1013 29.91 842 24.86 8.8 47.8 34 -6.2 20.9
19:40 1013 29.91 842 24.86 8.9 48 34 -6.1 21
19:45 1013 29.91 842 24.86 8.9 47.9 35 -5.7 21.7
19:50 1013 29.91 842 24.86 8.5 47.3 37 -5.4 22.2
19:55 1013 29.91 842 24.86 8.2 46.8 39 -5 23
20:00 1013 29.91 842 24.86 8 46.3 40 -4.8 23.4
20:05 1013 29.91 842 24.86 7.7 45.8 41 -4.6 23.8
20:10 1013 29.91 842 24.86 7.5 45.5 42 -4.7 23.5
20:15 1013 29.91 842 24.86 7.5 45.6 42 -4.5 23.9
20:20 1013 29.91 842 24.86 7.4 45.2 42 -4.7 23.5
20:25 1013 29.91 842 24.86 7.5 45.4 41 -5 22.9
20:30 1013 29.91 842 24.86 7.5 45.6 40 -5.1 22.9
20:35 1013 29.91 842 24.86 7.6 45.8 40 -5.2 22.6
20:40 1013 29.91 842 24.86 7.7 45.9 40 -5.2 22.7
20:45 1013 29.91 842 24.86 7.6 45.7 41 -4.9 23.1
20:50 1013 29.91 842 24.86 7.3 45.1 43 -4.4 24
20:55 1013 29.91 842 24.86 7 44.7 44 -4.3 24.3
21:00 1013 29.91 842 24.86 6.7 44 45 -4.5 24
21:05 1013 29.91 842 24.86 6.5 43.8 45 -4.7 23.6
21:10 1013 29.91 842 24.86 6.7 44 43 -5 23
21:15 1013 29.91 842 24.86 6.8 44.3 42 -5.2 22.7
21:20 1013 29.91 842 24.86 7.1 44.7 40 -5.5 22
21:25 1013 29.91 842 24.86 7.3 45.1 41 -5.2 22.6
21:30 1013 29.91 842 24.86 7 44.7 41 -5.5 22.2
21:35 1013 29.91 842 24.86 7.3 45.2 39 -5.6 22
21:40 1013 29.91 842 24.86 7.3 45.2 41 -5.2 22.7
21:45 1013 29.91 842 24.86 7.2 45 41 -5.1 22.8
21:50 1013 29.91 842 24.86 7.4 45.3 41 -5 22.9
21:55 1013 29.91 842 24.86 7.4 45.4 43 -4.3 24.3
22:00 1013 29.91 842 24.86 7.2 44.9 42 -4.8 23.3
22:05 1013 29.91 842 24.86 7.2 44.9 43 -4.4 24.1
22:10 1013 29.91 842 24.86 7.2 45 42 -4.9 23.3
22:15 1012 29.88 842 24.86 7.7 45.8 38 -5.8 21.6
22:20 1013 29.91 842 24.86 8.5 47.3 38 -5.1 22.8
22:25 1013 29.91 842 24.86 8.5 47.3 38 -5.1 22.9
22:30 1013 29.91 842 24.86 8.2 46.7 41 -4.4 24
22:35 1013 29.91 842 24.86 7.7 45.8 42 -4.3 24.2
22:40 1012 29.88 842 24.86 7.5 45.4 42 -4.7 23.5
22:45 1012 29.88 842 24.86 7.5 45.5 43 -4.3 24.3
22:50 1012 29.88 842 24.86 8.4 47.1 38 -5.2 22.6
22:55 1012 29.88 842 24.86 8.4 47 40 -4.5 23.9
23:00 1012 29.88 842 24.86 7.9 46.3 41 -4.5 24
23:05 1012 29.88 841 24.83 7.8 46.1 41 -4.7 23.5
23:10 1012 29.88 841 24.83 8.2 46.7 39 -5 22.9
23:15 1012 29.88 841 24.83 7.8 46 41 -4.5 23.9
23:20 1012 29.88 842 24.86 7.7 45.9 41 -4.7 23.5
23:25 1012 29.88 842 24.86 7.1 44.7 43 -4.6 23.7
23:30 1012 29.88 841 24.83 6.9 44.5 43 -4.9 23.2
23:35 1012 29.88 841 24.83 7.4 45.2 41 -5 23
23:40 1012 29.88 841 24.83 7.4 45.3 42 -4.8 23.4
23:45 1012 29.88 841 24.83 7 44.7 43 -4.6 23.7
23:50 1012 29.88 841 24.83 7 44.6 43 -4.6 23.7
23:55 1012 29.88 841 24.83 7.2 44.9 42 -4.7 23.5
24:00 1012 29.88 841 24.83 7.4 45.2 42 -4.8 23.4